sensor_id;sensor_type;location;lat;lon;timestamp;P1;durP1;ratioP1;P2;durP2;ratioP2
14396;SDS011;50653;0.000;0.000;2022-09-03T00:02:25;4.57;;;4.33;;
14396;SDS011;50653;0.000;0.000;2022-09-03T00:05:00;3.70;;;3.50;;
14396;SDS011;50653;0.000;0.000;2022-09-03T00:13:22;4.50;;;4.30;;
14396;SDS011;50653;0.000;0.000;2022-09-03T00:15:53;4.10;;;3.80;;
14396;SDS011;50653;0.000;0.000;2022-09-03T00:18:22;4.37;;;4.17;;
14396;SDS011;50653;0.000;0.000;2022-09-03T00:20:57;6.17;;;3.67;;
14396;SDS011;50653;0.000;0.000;2022-09-03T00:23:32;3.37;;;3.10;;
14396;SDS011;50653;0.000;0.000;2022-09-03T00:28:47;4.37;;;3.97;;
14396;SDS011;50653;0.000;0.000;2022-09-03T00:31:21;3.23;;;3.13;;
14396;SDS011;50653;0.000;0.000;2022-09-03T00:33:54;3.60;;;3.40;;
14396;SDS011;50653;0.000;0.000;2022-09-03T00:36:27;4.30;;;3.87;;
14396;SDS011;50653;0.000;0.000;2022-09-03T00:39:06;3.43;;;3.23;;
14396;SDS011;50653;0.000;0.000;2022-09-03T00:44:25;2.97;;;2.77;;
14396;SDS011;50653;0.000;0.000;2022-09-03T00:55:25;5.90;;;4.57;;
14396;SDS011;50653;0.000;0.000;2022-09-03T01:00:45;4.13;;;3.57;;
14396;SDS011;50653;0.000;0.000;2022-09-03T01:06:18;4.37;;;4.07;;
14396;SDS011;50653;0.000;0.000;2022-09-03T01:14:19;5.67;;;3.43;;
14396;SDS011;50653;0.000;0.000;2022-09-03T01:17:24;3.43;;;3.23;;
14396;SDS011;50653;0.000;0.000;2022-09-03T01:23:07;13.10;;;3.30;;
14396;SDS011;50653;0.000;0.000;2022-09-03T01:26:19;3.73;;;3.27;;
14396;SDS011;50653;0.000;0.000;2022-09-03T01:29:31;3.97;;;3.77;;
14396;SDS011;50653;0.000;0.000;2022-09-03T01:32:12;4.10;;;3.87;;
14396;SDS011;50653;0.000;0.000;2022-09-03T01:35:01;3.73;;;3.40;;
14396;SDS011;50653;0.000;0.000;2022-09-03T01:40:31;4.63;;;4.33;;
14396;SDS011;50653;0.000;0.000;2022-09-03T01:46:01;4.90;;;4.40;;
14396;SDS011;50653;0.000;0.000;2022-09-03T01:51:26;4.83;;;4.53;;
14396;SDS011;50653;0.000;0.000;2022-09-03T02:02:36;4.07;;;3.87;;
14396;SDS011;50653;0.000;0.000;2022-09-03T02:07:43;4.80;;;4.30;;
14396;SDS011;50653;0.000;0.000;2022-09-03T02:10:21;4.00;;;3.80;;
14396;SDS011;50653;0.000;0.000;2022-09-03T02:12:56;3.87;;;3.63;;
14396;SDS011;50653;0.000;0.000;2022-09-03T02:15:29;4.17;;;3.97;;
14396;SDS011;50653;0.000;0.000;2022-09-03T02:17:57;4.67;;;4.30;;
14396;SDS011;50653;0.000;0.000;2022-09-03T02:20:26;4.67;;;4.40;;
14396;SDS011;50653;0.000;0.000;2022-09-03T02:22:53;11.90;;;4.67;;
14396;SDS011;50653;0.000;0.000;2022-09-03T02:25:22;4.53;;;4.23;;
14396;SDS011;50653;0.000;0.000;2022-09-03T02:27:53;5.10;;;4.53;;
14396;SDS011;50653;0.000;0.000;2022-09-03T02:30:19;5.93;;;4.43;;
14396;SDS011;50653;0.000;0.000;2022-09-03T02:32:45;4.87;;;4.47;;
14396;SDS011;50653;0.000;0.000;2022-09-03T02:35:11;4.43;;;4.23;;
14396;SDS011;50653;0.000;0.000;2022-09-03T02:37:37;4.30;;;3.97;;
14396;SDS011;50653;0.000;0.000;2022-09-03T02:40:03;3.90;;;3.70;;
14396;SDS011;50653;0.000;0.000;2022-09-03T02:42:32;4.70;;;4.40;;
14396;SDS011;50653;0.000;0.000;2022-09-03T02:44:59;4.40;;;4.10;;
14396;SDS011;50653;0.000;0.000;2022-09-03T02:47:34;4.50;;;4.30;;
14396;SDS011;50653;0.000;0.000;2022-09-03T02:50:02;4.83;;;4.43;;
14396;SDS011;50653;0.000;0.000;2022-09-03T02:52:28;5.10;;;4.60;;
14396;SDS011;50653;0.000;0.000;2022-09-03T02:54:54;6.67;;;4.37;;
14396;SDS011;50653;0.000;0.000;2022-09-03T02:57:19;4.37;;;4.13;;
14396;SDS011;50653;0.000;0.000;2022-09-03T02:59:45;4.43;;;4.13;;
14396;SDS011;50653;0.000;0.000;2022-09-03T03:02:12;4.00;;;3.80;;
14396;SDS011;50653;0.000;0.000;2022-09-03T03:04:38;5.03;;;4.73;;
14396;SDS011;50653;0.000;0.000;2022-09-03T03:07:05;5.60;;;5.20;;
14396;SDS011;50653;0.000;0.000;2022-09-03T03:09:31;4.97;;;4.67;;
14396;SDS011;50653;0.000;0.000;2022-09-03T03:11:56;4.50;;;4.30;;
14396;SDS011;50653;0.000;0.000;2022-09-03T03:14:22;4.10;;;3.90;;
14396;SDS011;50653;0.000;0.000;2022-09-03T03:16:48;4.70;;;4.40;;
14396;SDS011;50653;0.000;0.000;2022-09-03T03:19:15;5.73;;;4.70;;
14396;SDS011;50653;0.000;0.000;2022-09-03T03:21:41;4.47;;;4.20;;
14396;SDS011;50653;0.000;0.000;2022-09-03T03:24:07;4.83;;;4.50;;
14396;SDS011;50653;0.000;0.000;2022-09-03T03:26:33;4.77;;;4.40;;
14396;SDS011;50653;0.000;0.000;2022-09-03T03:29:00;5.17;;;4.83;;
14396;SDS011;50653;0.000;0.000;2022-09-03T03:31:30;4.50;;;4.30;;
14396;SDS011;50653;0.000;0.000;2022-09-03T03:33:58;5.33;;;5.13;;
14396;SDS011;50653;0.000;0.000;2022-09-03T03:36:26;6.07;;;5.57;;
14396;SDS011;50653;0.000;0.000;2022-09-03T03:38:54;6.10;;;5.40;;
14396;SDS011;50653;0.000;0.000;2022-09-03T03:41:25;5.23;;;3.80;;
14396;SDS011;50653;0.000;0.000;2022-09-03T03:43:53;4.53;;;4.33;;
14396;SDS011;50653;0.000;0.000;2022-09-03T03:46:20;5.03;;;4.83;;
14396;SDS011;50653;0.000;0.000;2022-09-03T03:48:48;5.30;;;4.93;;
14396;SDS011;50653;0.000;0.000;2022-09-03T03:51:14;4.63;;;4.43;;
14396;SDS011;50653;0.000;0.000;2022-09-03T03:53:40;5.03;;;4.60;;
14396;SDS011;50653;0.000;0.000;2022-09-03T03:56:07;4.63;;;4.33;;
14396;SDS011;50653;0.000;0.000;2022-09-03T03:58:35;5.10;;;4.60;;
14396;SDS011;50653;0.000;0.000;2022-09-03T04:03:31;4.70;;;4.30;;
14396;SDS011;50653;0.000;0.000;2022-09-03T04:05:58;6.23;;;5.63;;
14396;SDS011;50653;0.000;0.000;2022-09-03T04:08:27;5.83;;;5.23;;
14396;SDS011;50653;0.000;0.000;2022-09-03T04:10:53;5.23;;;4.93;;
14396;SDS011;50653;0.000;0.000;2022-09-03T04:13:27;5.43;;;4.70;;
14396;SDS011;50653;0.000;0.000;2022-09-03T04:16:00;6.67;;;4.27;;
14396;SDS011;50653;0.000;0.000;2022-09-03T04:18:26;4.80;;;4.50;;
14396;SDS011;50653;0.000;0.000;2022-09-03T04:20:52;5.50;;;5.10;;
14396;SDS011;50653;0.000;0.000;2022-09-03T04:23:17;5.00;;;4.53;;
14396;SDS011;50653;0.000;0.000;2022-09-03T04:25:50;4.50;;;4.30;;
14396;SDS011;50653;0.000;0.000;2022-09-03T04:28:17;4.30;;;4.00;;
14396;SDS011;50653;0.000;0.000;2022-09-03T04:30:42;4.13;;;3.93;;
14396;SDS011;50653;0.000;0.000;2022-09-03T04:33:08;4.97;;;4.67;;
14396;SDS011;50653;0.000;0.000;2022-09-03T04:35:33;4.47;;;4.20;;
14396;SDS011;50653;0.000;0.000;2022-09-03T04:37:59;5.13;;;4.83;;
14396;SDS011;50653;0.000;0.000;2022-09-03T04:40:24;4.87;;;4.67;;
14396;SDS011;50653;0.000;0.000;2022-09-03T04:42:50;4.73;;;4.33;;
14396;SDS011;50653;0.000;0.000;2022-09-03T04:45:21;5.73;;;4.80;;
14396;SDS011;50653;0.000;0.000;2022-09-03T04:48:00;4.83;;;4.53;;
14396;SDS011;50653;0.000;0.000;2022-09-03T04:50:26;6.03;;;5.53;;
14396;SDS011;50653;0.000;0.000;2022-09-03T04:53:00;4.80;;;4.60;;
14396;SDS011;50653;0.000;0.000;2022-09-03T04:55:37;5.00;;;4.70;;
14396;SDS011;50653;0.000;0.000;2022-09-03T04:58:03;4.30;;;4.00;;
14396;SDS011;50653;0.000;0.000;2022-09-03T05:00:31;5.37;;;5.07;;
14396;SDS011;50653;0.000;0.000;2022-09-03T05:03:00;4.47;;;4.17;;
14396;SDS011;50653;0.000;0.000;2022-09-03T05:05:26;4.73;;;4.53;;
14396;SDS011;50653;0.000;0.000;2022-09-03T05:07:51;4.47;;;4.27;;
14396;SDS011;50653;0.000;0.000;2022-09-03T05:10:17;5.30;;;5.00;;
14396;SDS011;50653;0.000;0.000;2022-09-03T05:12:46;4.30;;;4.10;;
14396;SDS011;50653;0.000;0.000;2022-09-03T05:15:14;6.00;;;4.77;;
14396;SDS011;50653;0.000;0.000;2022-09-03T05:17:40;4.83;;;4.43;;
14396;SDS011;50653;0.000;0.000;2022-09-03T05:20:05;5.00;;;4.70;;
14396;SDS011;50653;0.000;0.000;2022-09-03T05:22:33;4.60;;;4.33;;
14396;SDS011;50653;0.000;0.000;2022-09-03T05:24:58;5.43;;;5.03;;
14396;SDS011;50653;0.000;0.000;2022-09-03T05:27:24;5.73;;;5.30;;
14396;SDS011;50653;0.000;0.000;2022-09-03T05:29:50;8.50;;;5.00;;
14396;SDS011;50653;0.000;0.000;2022-09-03T05:32:15;4.70;;;4.50;;
14396;SDS011;50653;0.000;0.000;2022-09-03T05:34:41;5.30;;;5.10;;
14396;SDS011;50653;0.000;0.000;2022-09-03T05:37:08;5.37;;;4.97;;
14396;SDS011;50653;0.000;0.000;2022-09-03T05:39:33;9.53;;;5.13;;
14396;SDS011;50653;0.000;0.000;2022-09-03T05:41:59;5.67;;;5.37;;
14396;SDS011;50653;0.000;0.000;2022-09-03T05:44:25;14.07;;;5.43;;
14396;SDS011;50653;0.000;0.000;2022-09-03T05:46:50;5.40;;;5.03;;
14396;SDS011;50653;0.000;0.000;2022-09-03T05:49:17;6.03;;;5.63;;
14396;SDS011;50653;0.000;0.000;2022-09-03T05:51:42;5.33;;;4.93;;
14396;SDS011;50653;0.000;0.000;2022-09-03T05:54:09;5.30;;;5.07;;
14396;SDS011;50653;0.000;0.000;2022-09-03T05:56:35;5.67;;;5.27;;
14396;SDS011;50653;0.000;0.000;2022-09-03T05:59:04;5.80;;;5.50;;
14396;SDS011;50653;0.000;0.000;2022-09-03T06:01:36;5.80;;;5.40;;
14396;SDS011;50653;0.000;0.000;2022-09-03T06:04:05;6.70;;;6.20;;
14396;SDS011;50653;0.000;0.000;2022-09-03T06:06:33;5.60;;;5.17;;
14396;SDS011;50653;0.000;0.000;2022-09-03T06:09:08;4.53;;;4.30;;
14396;SDS011;50653;0.000;0.000;2022-09-03T06:11:35;6.57;;;6.10;;
14396;SDS011;50653;0.000;0.000;2022-09-03T06:14:03;4.97;;;4.73;;
14396;SDS011;50653;0.000;0.000;2022-09-03T06:16:31;5.30;;;4.93;;
14396;SDS011;50653;0.000;0.000;2022-09-03T06:18:58;5.47;;;5.10;;
14396;SDS011;50653;0.000;0.000;2022-09-03T06:21:24;5.47;;;5.07;;
14396;SDS011;50653;0.000;0.000;2022-09-03T06:23:51;6.80;;;6.40;;
14396;SDS011;50653;0.000;0.000;2022-09-03T06:26:18;6.37;;;5.97;;
14396;SDS011;50653;0.000;0.000;2022-09-03T06:28:45;5.73;;;5.43;;
14396;SDS011;50653;0.000;0.000;2022-09-03T06:31:16;5.50;;;5.20;;
14396;SDS011;50653;0.000;0.000;2022-09-03T06:33:43;4.80;;;4.50;;
14396;SDS011;50653;0.000;0.000;2022-09-03T06:36:10;5.00;;;4.53;;
14396;SDS011;50653;0.000;0.000;2022-09-03T06:38:40;4.93;;;4.73;;
14396;SDS011;50653;0.000;0.000;2022-09-03T06:41:08;6.30;;;5.70;;
14396;SDS011;50653;0.000;0.000;2022-09-03T06:43:38;7.17;;;5.60;;
14396;SDS011;50653;0.000;0.000;2022-09-03T06:46:12;5.87;;;5.20;;
14396;SDS011;50653;0.000;0.000;2022-09-03T06:48:40;6.77;;;5.20;;
14396;SDS011;50653;0.000;0.000;2022-09-03T06:51:10;5.13;;;4.73;;
14396;SDS011;50653;0.000;0.000;2022-09-03T06:53:38;5.40;;;4.70;;
14396;SDS011;50653;0.000;0.000;2022-09-03T06:56:06;6.07;;;5.77;;
14396;SDS011;50653;0.000;0.000;2022-09-03T06:58:40;5.70;;;5.20;;
14396;SDS011;50653;0.000;0.000;2022-09-03T07:03:44;5.87;;;5.40;;
14396;SDS011;50653;0.000;0.000;2022-09-03T07:06:12;5.57;;;5.17;;
14396;SDS011;50653;0.000;0.000;2022-09-03T07:08:42;6.53;;;5.90;;
14396;SDS011;50653;0.000;0.000;2022-09-03T07:11:10;14.93;;;5.70;;
14396;SDS011;50653;0.000;0.000;2022-09-03T07:13:41;6.47;;;5.97;;
14396;SDS011;50653;0.000;0.000;2022-09-03T07:16:18;5.73;;;5.33;;
14396;SDS011;50653;0.000;0.000;2022-09-03T07:18:46;6.20;;;5.70;;
14396;SDS011;50653;0.000;0.000;2022-09-03T07:21:13;7.13;;;6.70;;
14396;SDS011;50653;0.000;0.000;2022-09-03T07:23:43;6.40;;;6.03;;
14396;SDS011;50653;0.000;0.000;2022-09-03T07:26:29;6.37;;;5.77;;
14396;SDS011;50653;0.000;0.000;2022-09-03T07:28:57;5.30;;;4.90;;
14396;SDS011;50653;0.000;0.000;2022-09-03T07:31:28;5.53;;;5.13;;
14396;SDS011;50653;0.000;0.000;2022-09-03T07:36:22;10.57;;;6.27;;
14396;SDS011;50653;0.000;0.000;2022-09-03T07:38:49;6.20;;;5.70;;
14396;SDS011;50653;0.000;0.000;2022-09-03T07:41:16;7.27;;;6.60;;
14396;SDS011;50653;0.000;0.000;2022-09-03T07:43:42;6.13;;;5.20;;
14396;SDS011;50653;0.000;0.000;2022-09-03T07:46:19;5.80;;;5.60;;
14396;SDS011;50653;0.000;0.000;2022-09-03T07:48:53;6.20;;;5.50;;
14396;SDS011;50653;0.000;0.000;2022-09-03T07:51:24;5.60;;;5.30;;
14396;SDS011;50653;0.000;0.000;2022-09-03T07:53:52;7.37;;;6.90;;
14396;SDS011;50653;0.000;0.000;2022-09-03T07:56:20;5.70;;;5.40;;
14396;SDS011;50653;0.000;0.000;2022-09-03T07:58:46;6.37;;;5.73;;
14396;SDS011;50653;0.000;0.000;2022-09-03T08:01:13;6.63;;;6.03;;
14396;SDS011;50653;0.000;0.000;2022-09-03T08:03:44;10.03;;;5.53;;
14396;SDS011;50653;0.000;0.000;2022-09-03T08:06:12;5.80;;;5.40;;
14396;SDS011;50653;0.000;0.000;2022-09-03T08:08:39;3.60;;;3.40;;
14396;SDS011;50653;0.000;0.000;2022-09-03T08:11:09;4.73;;;4.53;;
14396;SDS011;50653;0.000;0.000;2022-09-03T08:13:52;9.40;;;8.53;;
14396;SDS011;50653;0.000;0.000;2022-09-03T08:16:30;4.97;;;4.67;;
14396;SDS011;50653;0.000;0.000;2022-09-03T08:18:57;5.60;;;5.30;;
14396;SDS011;50653;0.000;0.000;2022-09-03T08:21:24;6.07;;;5.70;;
14396;SDS011;50653;0.000;0.000;2022-09-03T08:23:52;6.63;;;4.93;;
14396;SDS011;50653;0.000;0.000;2022-09-03T08:26:20;6.10;;;5.80;;
14396;SDS011;50653;0.000;0.000;2022-09-03T08:28:46;9.03;;;6.20;;
14396;SDS011;50653;0.000;0.000;2022-09-03T08:31:17;8.13;;;7.53;;
14396;SDS011;50653;0.000;0.000;2022-09-03T08:33:52;8.67;;;8.03;;
14396;SDS011;50653;0.000;0.000;2022-09-03T08:36:19;8.97;;;8.47;;
14396;SDS011;50653;0.000;0.000;2022-09-03T08:38:47;7.90;;;7.50;;
14396;SDS011;50653;0.000;0.000;2022-09-03T08:46:48;6.20;;;5.80;;
14396;SDS011;50653;0.000;0.000;2022-09-03T08:49:31;7.33;;;6.73;;
14396;SDS011;50653;0.000;0.000;2022-09-03T08:52:05;8.00;;;7.40;;
14396;SDS011;50653;0.000;0.000;2022-09-03T08:54:40;6.83;;;6.33;;
14396;SDS011;50653;0.000;0.000;2022-09-03T08:57:07;7.50;;;7.00;;
14396;SDS011;50653;0.000;0.000;2022-09-03T08:59:33;7.30;;;7.00;;
14396;SDS011;50653;0.000;0.000;2022-09-03T09:02:05;10.17;;;9.40;;
14396;SDS011;50653;0.000;0.000;2022-09-03T09:04:47;10.50;;;9.73;;
14396;SDS011;50653;0.000;0.000;2022-09-03T09:10:11;9.23;;;8.60;;
14396;SDS011;50653;0.000;0.000;2022-09-03T09:15:27;5.47;;;5.07;;
14396;SDS011;50653;0.000;0.000;2022-09-03T09:18:17;6.70;;;6.27;;
14396;SDS011;50653;0.000;0.000;2022-09-03T09:21:19;6.80;;;6.40;;
14396;SDS011;50653;0.000;0.000;2022-09-03T09:23:47;6.50;;;5.40;;
14396;SDS011;50653;0.000;0.000;2022-09-03T09:26:15;5.90;;;5.50;;
14396;SDS011;50653;0.000;0.000;2022-09-03T09:28:46;5.33;;;5.03;;
14396;SDS011;50653;0.000;0.000;2022-09-03T09:31:21;5.33;;;5.03;;
14396;SDS011;50653;0.000;0.000;2022-09-03T09:33:47;5.70;;;5.50;;
14396;SDS011;50653;0.000;0.000;2022-09-03T09:36:13;5.10;;;4.90;;
14396;SDS011;50653;0.000;0.000;2022-09-03T09:38:41;4.77;;;4.47;;
14396;SDS011;50653;0.000;0.000;2022-09-03T09:41:11;5.73;;;5.33;;
14396;SDS011;50653;0.000;0.000;2022-09-03T09:43:38;4.80;;;4.60;;
14396;SDS011;50653;0.000;0.000;2022-09-03T09:46:08;4.87;;;4.57;;
14396;SDS011;50653;0.000;0.000;2022-09-03T09:48:38;5.30;;;4.90;;
14396;SDS011;50653;0.000;0.000;2022-09-03T09:51:16;5.67;;;5.27;;
14396;SDS011;50653;0.000;0.000;2022-09-03T09:53:46;4.90;;;4.67;;
14396;SDS011;50653;0.000;0.000;2022-09-03T09:56:25;5.00;;;4.80;;
14396;SDS011;50653;0.000;0.000;2022-09-03T09:59:07;4.53;;;4.23;;
14396;SDS011;50653;0.000;0.000;2022-09-03T10:01:38;5.07;;;4.70;;
14396;SDS011;50653;0.000;0.000;2022-09-03T10:06:52;4.70;;;4.50;;
14396;SDS011;50653;0.000;0.000;2022-09-03T10:09:21;5.00;;;4.70;;
14396;SDS011;50653;0.000;0.000;2022-09-03T10:11:50;8.73;;;4.83;;
14396;SDS011;50653;0.000;0.000;2022-09-03T10:14:36;5.30;;;4.90;;
14396;SDS011;50653;0.000;0.000;2022-09-03T10:28:27;5.23;;;4.93;;
14396;SDS011;50653;0.000;0.000;2022-09-03T10:34:02;4.80;;;3.77;;
14396;SDS011;50653;0.000;0.000;2022-09-03T10:36:43;5.23;;;4.87;;
14396;SDS011;50653;0.000;0.000;2022-09-03T10:51:04;4.23;;;3.90;;
14396;SDS011;50653;0.000;0.000;2022-09-03T10:56:41;5.80;;;5.50;;
14396;SDS011;50653;0.000;0.000;2022-09-03T10:59:38;6.60;;;6.30;;
14396;SDS011;50653;0.000;0.000;2022-09-03T11:02:26;6.07;;;5.77;;
14396;SDS011;50653;0.000;0.000;2022-09-03T11:07:47;5.20;;;4.80;;
14396;SDS011;50653;0.000;0.000;2022-09-03T11:10:28;6.20;;;5.60;;
14396;SDS011;50653;0.000;0.000;2022-09-03T11:15:38;5.63;;;5.33;;
14396;SDS011;50653;0.000;0.000;2022-09-03T11:18:15;4.73;;;4.43;;
14396;SDS011;50653;0.000;0.000;2022-09-03T11:20:48;6.20;;;5.80;;
14396;SDS011;50653;0.000;0.000;2022-09-03T11:23:17;5.40;;;5.10;;
14396;SDS011;50653;0.000;0.000;2022-09-03T11:25:48;6.00;;;5.50;;
14396;SDS011;50653;0.000;0.000;2022-09-03T11:28:34;6.43;;;6.13;;
14396;SDS011;50653;0.000;0.000;2022-09-03T11:36:50;5.60;;;5.00;;
14396;SDS011;50653;0.000;0.000;2022-09-03T11:42:10;10.33;;;5.70;;
14396;SDS011;50653;0.000;0.000;2022-09-03T11:44:43;5.87;;;5.67;;
14396;SDS011;50653;0.000;0.000;2022-09-03T11:50:08;6.10;;;5.70;;
14396;SDS011;50653;0.000;0.000;2022-09-03T11:52:46;4.60;;;4.40;;
14396;SDS011;50653;0.000;0.000;2022-09-03T11:55:25;5.60;;;5.40;;
14396;SDS011;50653;0.000;0.000;2022-09-03T11:57:56;7.83;;;7.33;;
14396;SDS011;50653;0.000;0.000;2022-09-03T12:00:22;4.93;;;4.63;;
14396;SDS011;50653;0.000;0.000;2022-09-03T12:02:56;5.47;;;4.97;;
14396;SDS011;50653;0.000;0.000;2022-09-03T12:07:58;5.03;;;4.83;;
14396;SDS011;50653;0.000;0.000;2022-09-03T12:10:48;5.77;;;5.30;;
14396;SDS011;50653;0.000;0.000;2022-09-03T12:18:46;5.20;;;4.97;;
14396;SDS011;50653;0.000;0.000;2022-09-03T12:21:17;5.40;;;5.20;;
14396;SDS011;50653;0.000;0.000;2022-09-03T12:23:44;4.87;;;4.57;;
14396;SDS011;50653;0.000;0.000;2022-09-03T12:28:50;5.07;;;4.87;;
14396;SDS011;50653;0.000;0.000;2022-09-03T12:31:21;5.33;;;4.93;;
14396;SDS011;50653;0.000;0.000;2022-09-03T12:36:35;5.47;;;5.07;;
14396;SDS011;50653;0.000;0.000;2022-09-03T12:39:07;4.13;;;3.93;;
14396;SDS011;50653;0.000;0.000;2022-09-03T12:41:53;4.93;;;4.63;;
14396;SDS011;50653;0.000;0.000;2022-09-03T12:44:29;4.57;;;4.37;;
14396;SDS011;50653;0.000;0.000;2022-09-03T12:49:37;4.67;;;4.47;;
14396;SDS011;50653;0.000;0.000;2022-09-03T12:52:17;4.23;;;4.03;;
14396;SDS011;50653;0.000;0.000;2022-09-03T12:57:42;5.57;;;5.37;;
14396;SDS011;50653;0.000;0.000;2022-09-03T13:00:13;5.30;;;5.10;;
14396;SDS011;50653;0.000;0.000;2022-09-03T13:05:42;4.40;;;4.20;;
14396;SDS011;50653;0.000;0.000;2022-09-03T13:08:37;4.30;;;4.10;;
14396;SDS011;50653;0.000;0.000;2022-09-03T13:11:03;4.80;;;4.60;;
14396;SDS011;50653;0.000;0.000;2022-09-03T13:13:30;4.60;;;4.30;;
14396;SDS011;50653;0.000;0.000;2022-09-03T13:18:37;4.87;;;4.67;;
14396;SDS011;50653;0.000;0.000;2022-09-03T13:24:11;4.77;;;4.50;;
14396;SDS011;50653;0.000;0.000;2022-09-03T13:27:01;4.37;;;4.07;;
14396;SDS011;50653;0.000;0.000;2022-09-03T13:32:19;4.83;;;4.63;;
14396;SDS011;50653;0.000;0.000;2022-09-03T13:37:37;4.50;;;4.23;;
14396;SDS011;50653;0.000;0.000;2022-09-03T13:45:59;4.60;;;4.40;;
14396;SDS011;50653;0.000;0.000;2022-09-03T13:48:39;4.23;;;4.00;;
14396;SDS011;50653;0.000;0.000;2022-09-03T13:51:28;5.00;;;4.70;;
14396;SDS011;50653;0.000;0.000;2022-09-03T13:54:17;4.60;;;4.40;;
14396;SDS011;50653;0.000;0.000;2022-09-03T13:59:28;4.37;;;4.10;;
14396;SDS011;50653;0.000;0.000;2022-09-03T14:02:00;4.17;;;3.97;;
14396;SDS011;50653;0.000;0.000;2022-09-03T14:04:57;5.70;;;4.03;;
14396;SDS011;50653;0.000;0.000;2022-09-03T14:07:55;4.60;;;4.40;;
14396;SDS011;50653;0.000;0.000;2022-09-03T14:13:11;4.67;;;4.47;;
14396;SDS011;50653;0.000;0.000;2022-09-03T14:15:47;5.40;;;5.10;;
14396;SDS011;50653;0.000;0.000;2022-09-03T14:18:34;4.40;;;4.10;;
14396;SDS011;50653;0.000;0.000;2022-09-03T14:21:10;4.20;;;4.00;;
14396;SDS011;50653;0.000;0.000;2022-09-03T14:23:52;4.83;;;4.53;;
14396;SDS011;50653;0.000;0.000;2022-09-03T14:26:29;4.60;;;4.33;;
14396;SDS011;50653;0.000;0.000;2022-09-03T14:37:33;4.47;;;4.27;;
14396;SDS011;50653;0.000;0.000;2022-09-03T14:43:11;4.83;;;4.40;;
14396;SDS011;50653;0.000;0.000;2022-09-03T14:46:05;5.10;;;4.90;;
14396;SDS011;50653;0.000;0.000;2022-09-03T15:08:27;4.87;;;4.67;;
14396;SDS011;50653;0.000;0.000;2022-09-03T15:19:18;4.80;;;4.50;;
14396;SDS011;50653;0.000;0.000;2022-09-03T15:22:07;4.70;;;4.40;;
14396;SDS011;50653;0.000;0.000;2022-09-03T15:27:45;5.37;;;5.00;;
14396;SDS011;50653;0.000;0.000;2022-09-03T15:33:46;4.70;;;4.40;;
14396;SDS011;50653;0.000;0.000;2022-09-03T15:36:21;4.23;;;4.00;;
14396;SDS011;50653;0.000;0.000;2022-09-03T15:38:54;4.77;;;4.23;;
14396;SDS011;50653;0.000;0.000;2022-09-03T15:41:33;4.93;;;4.47;;
14396;SDS011;50653;0.000;0.000;2022-09-03T15:44:13;3.70;;;3.50;;
14396;SDS011;50653;0.000;0.000;2022-09-03T15:54:47;4.27;;;3.50;;
14396;SDS011;50653;0.000;0.000;2022-09-03T15:57:28;4.20;;;4.03;;
14396;SDS011;50653;0.000;0.000;2022-09-03T16:00:16;4.00;;;3.80;;
14396;SDS011;50653;0.000;0.000;2022-09-03T16:08:42;4.10;;;4.00;;
14396;SDS011;50653;0.000;0.000;2022-09-03T16:11:16;7.10;;;4.60;;
14396;SDS011;50653;0.000;0.000;2022-09-03T16:16:56;4.30;;;4.03;;
14396;SDS011;50653;0.000;0.000;2022-09-03T16:19:46;4.03;;;3.73;;
14396;SDS011;50653;0.000;0.000;2022-09-03T16:22:29;3.97;;;3.67;;
14396;SDS011;50653;0.000;0.000;2022-09-03T16:30:45;4.97;;;4.63;;
14396;SDS011;50653;0.000;0.000;2022-09-03T16:46:43;0.80;;;0.80;;
14396;SDS011;50653;0.000;0.000;2022-09-03T17:02:27;1.97;;;0.70;;
14396;SDS011;50653;0.000;0.000;2022-09-03T17:05:19;1.20;;;1.10;;
14396;SDS011;50653;0.000;0.000;2022-09-03T17:08:13;1.20;;;0.80;;
14396;SDS011;50653;0.000;0.000;2022-09-03T17:14:01;1.50;;;1.00;;
14396;SDS011;50653;0.000;0.000;2022-09-03T17:16:57;0.87;;;0.77;;
14396;SDS011;50653;0.000;0.000;2022-09-03T17:19:43;1.33;;;0.70;;
14396;SDS011;50653;0.000;0.000;2022-09-03T17:22:25;1.53;;;1.10;;
14396;SDS011;50653;0.000;0.000;2022-09-03T17:30:46;1.37;;;1.03;;
14396;SDS011;50653;0.000;0.000;2022-09-03T17:34:04;2.73;;;1.00;;
14396;SDS011;50653;0.000;0.000;2022-09-03T17:36:54;2.90;;;1.57;;
14396;SDS011;50653;0.000;0.000;2022-09-03T17:39:44;2.10;;;1.20;;
14396;SDS011;50653;0.000;0.000;2022-09-03T17:48:19;0.80;;;0.80;;
14396;SDS011;50653;0.000;0.000;2022-09-03T17:50:48;1.20;;;1.10;;
14396;SDS011;50653;0.000;0.000;2022-09-03T17:53:51;1.13;;;1.00;;
14396;SDS011;50653;0.000;0.000;2022-09-03T17:56:38;0.80;;;0.70;;
14396;SDS011;50653;0.000;0.000;2022-09-03T17:59:11;1.10;;;1.00;;
14396;SDS011;50653;0.000;0.000;2022-09-03T18:02:03;1.20;;;1.10;;
14396;SDS011;50653;0.000;0.000;2022-09-03T18:04:42;6.40;;;0.90;;
14396;SDS011;50653;0.000;0.000;2022-09-03T18:13:02;1.07;;;0.97;;
14396;SDS011;50653;0.000;0.000;2022-09-03T18:15:38;1.27;;;0.77;;
14396;SDS011;50653;0.000;0.000;2022-09-03T18:18:19;2.03;;;0.70;;
14396;SDS011;50653;0.000;0.000;2022-09-03T18:20:53;1.90;;;1.20;;
14396;SDS011;50653;0.000;0.000;2022-09-03T18:26:31;4.40;;;4.10;;
14396;SDS011;50653;0.000;0.000;2022-09-03T18:29:23;4.27;;;3.90;;
14396;SDS011;50653;0.000;0.000;2022-09-03T18:32:14;2.17;;;1.97;;
14396;SDS011;50653;0.000;0.000;2022-09-03T18:34:58;3.90;;;3.13;;
14396;SDS011;50653;0.000;0.000;2022-09-03T18:37:42;3.20;;;3.00;;
14396;SDS011;50653;0.000;0.000;2022-09-03T18:40:28;4.17;;;1.57;;
14396;SDS011;50653;0.000;0.000;2022-09-03T18:49:14;2.80;;;2.70;;
14396;SDS011;50653;0.000;0.000;2022-09-03T18:52:26;4.23;;;1.63;;
14396;SDS011;50653;0.000;0.000;2022-09-03T18:58:38;0.87;;;0.63;;
14396;SDS011;50653;0.000;0.000;2022-09-03T19:01:28;1.30;;;1.20;;
14396;SDS011;50653;0.000;0.000;2022-09-03T19:07:40;1.50;;;1.40;;
14396;SDS011;50653;0.000;0.000;2022-09-03T19:13:42;2.37;;;0.90;;
14396;SDS011;50653;0.000;0.000;2022-09-03T19:22:59;1.10;;;1.00;;
14396;SDS011;50653;0.000;0.000;2022-09-03T19:25:46;0.70;;;0.70;;
14396;SDS011;50653;0.000;0.000;2022-09-03T19:28:30;1.60;;;0.87;;
14396;SDS011;50653;0.000;0.000;2022-09-03T19:47:11;1.37;;;1.27;;
14396;SDS011;50653;0.000;0.000;2022-09-03T19:50:12;1.47;;;0.90;;
14396;SDS011;50653;0.000;0.000;2022-09-03T19:53:04;1.00;;;0.90;;
14396;SDS011;50653;0.000;0.000;2022-09-03T19:55:56;1.03;;;0.83;;
14396;SDS011;50653;0.000;0.000;2022-09-03T19:58:50;4.47;;;1.00;;
14396;SDS011;50653;0.000;0.000;2022-09-03T20:01:38;1.50;;;0.80;;
14396;SDS011;50653;0.000;0.000;2022-09-03T20:04:35;0.70;;;0.60;;
14396;SDS011;50653;0.000;0.000;2022-09-03T20:07:23;0.83;;;0.60;;
14396;SDS011;50653;0.000;0.000;2022-09-03T20:10:09;1.67;;;1.20;;
14396;SDS011;50653;0.000;0.000;2022-09-03T20:15:34;1.10;;;1.00;;
14396;SDS011;50653;0.000;0.000;2022-09-03T20:26:31;1.93;;;1.00;;
14396;SDS011;50653;0.000;0.000;2022-09-03T20:49:40;0.70;;;0.70;;
14396;SDS011;50653;0.000;0.000;2022-09-03T20:55:32;1.30;;;1.20;;
14396;SDS011;50653;0.000;0.000;2022-09-03T20:58:12;0.63;;;0.60;;
14396;SDS011;50653;0.000;0.000;2022-09-03T21:00:44;1.40;;;0.70;;
14396;SDS011;50653;0.000;0.000;2022-09-03T21:06:32;1.07;;;0.97;;
14396;SDS011;50653;0.000;0.000;2022-09-03T21:09:16;0.70;;;0.60;;
14396;SDS011;50653;0.000;0.000;2022-09-03T21:12:12;1.93;;;1.03;;
14396;SDS011;50653;0.000;0.000;2022-09-03T21:14:53;1.67;;;1.00;;
14396;SDS011;50653;0.000;0.000;2022-09-03T21:17:37;1.27;;;1.17;;
14396;SDS011;50653;0.000;0.000;2022-09-03T21:20:31;1.10;;;1.00;;
14396;SDS011;50653;0.000;0.000;2022-09-03T21:23:27;1.10;;;0.93;;
14396;SDS011;50653;0.000;0.000;2022-09-03T21:26:16;0.90;;;0.73;;
14396;SDS011;50653;0.000;0.000;2022-09-03T21:31:45;1.00;;;1.00;;
14396;SDS011;50653;0.000;0.000;2022-09-03T21:34:18;1.20;;;1.10;;
14396;SDS011;50653;0.000;0.000;2022-09-03T21:36:49;2.10;;;1.00;;
14396;SDS011;50653;0.000;0.000;2022-09-03T21:39:19;1.10;;;1.00;;
14396;SDS011;50653;0.000;0.000;2022-09-03T21:41:54;1.00;;;0.90;;
14396;SDS011;50653;0.000;0.000;2022-09-03T21:47:16;1.00;;;0.90;;
14396;SDS011;50653;0.000;0.000;2022-09-03T21:52:38;0.97;;;0.87;;
14396;SDS011;50653;0.000;0.000;2022-09-03T21:55:19;1.67;;;0.90;;